createdAt,value
2022-09-21T00:00:50.321Z,84.08
2022-09-21T00:03:19.424Z,82.61
2022-09-21T00:05:47.307Z,82.11
2022-09-21T00:08:15.401Z,82.06
2022-09-21T00:10:43.747Z,82.42
2022-09-21T00:13:13.371Z,82.79
2022-09-21T00:15:42.159Z,83.53
2022-09-21T00:18:11.372Z,83.66
2022-09-21T00:20:43.637Z,84.00
2022-09-21T00:23:11.535Z,84.03
2022-09-21T00:25:39.766Z,83.77
2022-09-21T00:28:07.368Z,84.34
2022-09-21T00:30:35.831Z,83.82
2022-09-21T00:33:03.526Z,84.15
2022-09-21T00:35:31.451Z,84.07
2022-09-21T00:38:03.014Z,84.13
2022-09-21T00:40:31.787Z,84.43
2022-09-21T00:43:13.170Z,84.16
2022-09-21T00:45:42.009Z,84.40
2022-09-21T00:48:10.351Z,84.27
2022-09-21T00:50:43.842Z,84.03
2022-09-21T00:53:13.000Z,84.02
2022-09-21T00:55:44.552Z,83.25
2022-09-21T00:58:15.569Z,83.15
2022-09-21T01:00:43.918Z,83.57
2022-09-21T01:03:13.470Z,83.80
2022-09-21T01:05:41.114Z,83.73
2022-09-21T01:08:13.054Z,84.24
2022-09-21T01:10:58.276Z,84.03
2022-09-21T01:13:37.586Z,83.93
2022-09-21T01:16:14.580Z,83.80
2022-09-21T01:18:47.783Z,83.44
2022-09-21T01:21:21.746Z,83.06
2022-09-21T01:24:09.863Z,83.60
2022-09-21T01:26:55.292Z,83.18
2022-09-21T01:29:28.466Z,83.62
2022-09-21T01:32:02.919Z,83.71
2022-09-21T01:34:34.949Z,84.58
2022-09-21T01:37:10.742Z,84.60
2022-09-21T01:39:41.906Z,84.09
2022-09-21T01:42:11.658Z,84.34
2022-09-21T01:44:43.398Z,84.41
2022-09-21T01:47:14.328Z,84.35
2022-09-21T01:49:45.997Z,83.97
2022-09-21T01:52:18.754Z,84.25
2022-09-21T01:54:51.401Z,84.59
2022-09-21T01:57:27.822Z,84.50
2022-09-21T01:59:58.624Z,84.80
2022-09-21T02:02:38.524Z,84.75
2022-09-21T02:05:07.356Z,84.63
2022-09-21T02:07:36.812Z,84.77
2022-09-21T02:10:06.833Z,84.68
2022-09-21T02:12:35.393Z,84.78
2022-09-21T02:15:05.222Z,84.81
2022-09-21T02:17:41.735Z,84.44
2022-09-21T02:20:20.242Z,84.37
2022-09-21T02:23:00.981Z,84.52
2022-09-21T02:25:38.440Z,84.81
2022-09-21T02:28:11.943Z,84.64
2022-09-21T02:30:45.574Z,84.53
2022-09-21T02:33:20.719Z,84.82
2022-09-21T02:35:54.087Z,84.50
2022-09-21T02:38:29.632Z,84.63
2022-09-21T02:41:06.531Z,84.49
2022-09-21T02:43:38.623Z,84.13
2022-09-21T02:46:13.094Z,84.63
2022-09-21T02:48:48.095Z,84.24
2022-09-21T02:51:26.074Z,84.25
2022-09-21T02:53:56.281Z,84.49
2022-09-21T02:56:24.622Z,84.30
2022-09-21T02:58:56.899Z,84.01
2022-09-21T03:01:27.790Z,83.99
2022-09-21T03:03:55.486Z,83.67
2022-09-21T03:06:23.129Z,83.45
2022-09-21T03:08:50.768Z,83.49
2022-09-21T03:11:18.561Z,83.01
2022-09-21T03:13:46.456Z,82.82
2022-09-21T03:16:14.949Z,82.83
2022-09-21T03:18:45.313Z,82.62
2022-09-21T03:21:13.467Z,82.73
2022-09-21T03:23:41.590Z,82.63
2022-09-21T03:26:09.729Z,82.65
2022-09-21T03:28:37.657Z,82.78
2022-09-21T03:31:06.482Z,82.92
2022-09-21T03:33:34.976Z,82.87
2022-09-21T03:36:04.162Z,82.17
2022-09-21T03:38:32.239Z,82.54
2022-09-21T03:40:59.891Z,82.26
2022-09-21T03:43:28.131Z,82.03
2022-09-21T03:45:55.825Z,82.40
2022-09-21T03:48:23.534Z,82.23
2022-09-21T03:50:51.474Z,82.23
2022-09-21T03:53:20.802Z,82.74
2022-09-21T03:55:48.523Z,82.96
2022-09-21T03:58:16.662Z,83.40
2022-09-21T04:00:44.266Z,83.62
2022-09-21T04:03:12.180Z,84.03
2022-09-21T04:05:40.016Z,84.41
2022-09-21T04:08:08.545Z,84.30
2022-09-21T04:10:37.510Z,84.30
2022-09-21T04:13:07.023Z,84.02
2022-09-21T04:15:34.702Z,83.97
2022-09-21T04:18:03.202Z,83.74
2022-09-21T04:20:30.802Z,83.64
2022-09-21T04:23:00.350Z,84.05
2022-09-21T04:25:28.059Z,84.35
2022-09-21T04:27:57.374Z,84.12
2022-09-21T04:30:24.983Z,84.12
2022-09-21T04:32:52.775Z,84.22
2022-09-21T04:35:20.419Z,84.46
2022-09-21T04:37:48.070Z,84.68
2022-09-21T04:40:15.906Z,84.96
2022-09-21T04:42:43.515Z,85.09
2022-09-21T04:45:12.880Z,84.74
2022-09-21T04:47:40.469Z,84.80
2022-09-21T04:50:09.349Z,84.69
2022-09-21T04:52:36.961Z,84.71
2022-09-21T04:55:05.082Z,84.60
2022-09-21T04:57:32.693Z,84.70
2022-09-21T05:00:00.758Z,84.49
2022-09-21T05:02:29.689Z,84.48
2022-09-21T05:04:57.658Z,84.59
2022-09-21T05:07:25.273Z,84.75
2022-09-21T05:10:04.440Z,84.88
2022-09-21T05:12:32.421Z,84.69
2022-09-21T05:15:01.442Z,84.57
2022-09-21T05:17:31.016Z,84.44
2022-09-21T05:19:58.898Z,84.40
2022-09-21T05:22:26.497Z,84.04
2022-09-21T05:24:55.677Z,84.26
2022-09-21T05:27:23.264Z,84.17
2022-09-21T05:29:51.490Z,84.12
2022-09-21T05:32:24.978Z,84.29
2022-09-21T05:35:04.806Z,84.11
2022-09-21T05:37:46.401Z,84.20
2022-09-21T05:40:15.415Z,83.60
2022-09-21T05:42:43.506Z,82.37
2022-09-21T05:45:15.680Z,82.41
2022-09-21T05:47:54.977Z,82.32
2022-09-21T05:50:35.934Z,82.54
2022-09-21T05:53:19.267Z,82.33
2022-09-21T05:55:56.565Z,82.49
2022-09-21T05:58:34.162Z,82.04
2022-09-21T06:01:17.671Z,81.63
2022-09-21T06:03:48.549Z,81.87
2022-09-21T06:06:19.012Z,81.19
2022-09-21T06:08:46.868Z,81.00
2022-09-21T06:11:15.194Z,81.12
2022-09-21T06:13:43.199Z,80.68
2022-09-21T06:16:11.346Z,81.35
2022-09-21T06:18:40.102Z,81.35
2022-09-21T06:21:09.103Z,81.47
2022-09-21T06:23:38.261Z,80.64
2022-09-21T06:26:06.468Z,80.62
2022-09-21T06:28:34.090Z,80.73
2022-09-21T06:31:01.783Z,80.83
2022-09-21T06:33:29.485Z,81.25
2022-09-21T06:35:59.008Z,81.16
2022-09-21T06:38:29.021Z,81.50
2022-09-21T06:41:03.228Z,81.76
2022-09-21T06:43:31.853Z,80.89
2022-09-21T06:46:01.458Z,80.48
2022-09-21T06:48:30.550Z,81.59
2022-09-21T06:51:00.007Z,81.54
2022-09-21T06:53:28.055Z,81.71
2022-09-21T06:56:03.053Z,82.32
2022-09-21T06:58:32.027Z,82.04
2022-09-21T07:01:00.475Z,82.39
2022-09-21T07:03:28.358Z,82.10
2022-09-21T07:05:56.718Z,81.70
2022-09-21T07:11:14.186Z,80.92
2022-09-21T07:13:41.982Z,79.76
2022-09-21T07:16:11.106Z,80.25
2022-09-21T07:18:44.298Z,80.00
2022-09-21T07:21:13.104Z,79.41
2022-09-21T07:23:40.681Z,79.22
2022-09-21T07:26:10.790Z,78.69
2022-09-21T07:28:40.574Z,78.88
2022-09-21T07:31:10.126Z,78.73
2022-09-21T07:33:38.105Z,78.11
2022-09-21T07:36:10.384Z,77.78
2022-09-21T07:38:39.724Z,78.22
2022-09-21T07:41:08.151Z,77.85
2022-09-21T07:43:35.778Z,77.44
2022-09-21T07:46:05.222Z,77.17
2022-09-21T07:48:32.877Z,76.93
2022-09-21T07:51:06.264Z,76.75
2022-09-21T07:53:34.245Z,75.17
2022-09-21T07:56:03.446Z,74.79
2022-09-21T07:58:48.565Z,74.14
2022-09-21T08:01:18.586Z,74.27
2022-09-21T08:03:46.279Z,74.36
2022-09-21T08:06:14.223Z,72.50
2022-09-21T08:08:42.299Z,72.36
2022-09-21T08:11:11.801Z,71.77
2022-09-21T08:13:39.469Z,72.47
2022-09-21T08:16:07.834Z,70.95
2022-09-21T08:18:39.617Z,70.57
2022-09-21T08:21:09.949Z,70.52
2022-09-21T08:23:42.817Z,70.95
2022-09-21T08:26:19.524Z,69.05
2022-09-21T08:28:49.765Z,68.45
2022-09-21T08:31:20.056Z,68.33
2022-09-21T08:33:50.011Z,68.75
2022-09-21T08:36:19.118Z,68.32
2022-09-21T08:38:48.060Z,66.21
2022-09-21T08:41:20.110Z,64.75
2022-09-21T08:43:53.310Z,64.65
2022-09-21T08:46:23.522Z,63.94
2022-09-21T08:48:57.347Z,64.37
2022-09-21T08:51:29.314Z,64.13
2022-09-21T08:54:02.242Z,62.75
2022-09-21T08:56:47.454Z,63.53
2022-09-21T08:59:17.859Z,62.29
2022-09-21T09:01:58.685Z,61.30
2022-09-21T09:04:40.178Z,61.42
2022-09-21T09:07:38.827Z,59.96
2022-09-21T09:10:19.435Z,59.29
2022-09-21T09:13:00.146Z,58.22
2022-09-21T09:15:47.278Z,58.81
2022-09-21T09:18:22.349Z,57.44
2022-09-21T09:20:58.521Z,54.72
2022-09-21T09:23:29.464Z,55.88
2022-09-21T09:26:02.203Z,56.25
2022-09-21T09:28:34.382Z,56.46
2022-09-21T09:31:10.496Z,56.58
2022-09-21T09:33:47.314Z,55.24
2022-09-21T09:36:20.772Z,54.55
2022-09-21T09:39:02.749Z,52.87
2022-09-21T09:41:58.441Z,53.26
2022-09-21T09:45:00.830Z,52.08
2022-09-21T09:47:43.284Z,52.24
2022-09-21T09:50:14.746Z,53.51
2022-09-21T09:52:45.182Z,53.44
2022-09-21T09:55:20.441Z,53.06
2022-09-21T09:57:49.332Z,51.89
2022-09-21T10:00:20.163Z,51.70
2022-09-21T10:02:49.913Z,50.64
2022-09-21T10:05:24.010Z,50.29
2022-09-21T10:07:54.699Z,50.02
2022-09-21T10:10:27.918Z,51.25
2022-09-21T10:12:58.336Z,53.06
2022-09-21T10:15:26.108Z,51.22
2022-09-21T10:18:01.106Z,49.67
2022-09-21T10:20:31.266Z,50.63
2022-09-21T10:23:01.182Z,48.51
2022-09-21T10:25:30.185Z,48.51
2022-09-21T10:27:59.149Z,48.84
2022-09-21T10:30:36.468Z,50.26
2022-09-21T10:33:04.274Z,50.06
2022-09-21T10:35:32.275Z,50.52
2022-09-21T10:38:22.412Z,50.56
2022-09-21T10:40:51.814Z,48.88
2022-09-21T10:43:27.236Z,48.36
2022-09-21T10:45:57.169Z,46.71
2022-09-21T10:48:27.163Z,47.06
2022-09-21T10:50:58.023Z,46.28
2022-09-21T10:53:29.314Z,44.80
2022-09-21T10:56:15.451Z,46.25
2022-09-21T10:59:21.857Z,46.88
2022-09-21T11:01:51.976Z,46.85
2022-09-21T11:04:28.346Z,47.37
2022-09-21T11:07:02.158Z,47.14
2022-09-21T11:09:36.168Z,46.98
2022-09-21T11:12:12.626Z,48.33
2022-09-21T11:14:52.861Z,48.75
2022-09-21T11:17:28.631Z,48.56
2022-09-21T11:20:08.049Z,48.48
2022-09-21T11:22:42.782Z,49.16
2022-09-21T11:25:25.301Z,47.83
2022-09-21T11:27:58.809Z,49.33
2022-09-21T11:30:40.082Z,49.10
2022-09-21T11:33:20.278Z,49.84
2022-09-21T11:36:00.397Z,50.03
2022-09-21T11:38:43.287Z,50.73
2022-09-21T11:41:28.143Z,51.40
2022-09-21T11:44:15.262Z,50.63
2022-09-21T11:46:50.349Z,50.64
2022-09-21T11:49:40.451Z,51.57
2022-09-21T11:52:22.538Z,50.54
2022-09-21T11:55:01.704Z,50.86
2022-09-21T11:57:34.818Z,50.83
2022-09-21T12:00:15.790Z,51.01
2022-09-21T12:03:14.504Z,50.56
2022-09-21T12:05:50.159Z,49.11
2022-09-21T12:08:38.092Z,51.69
2022-09-21T12:11:14.709Z,51.92
2022-09-21T12:13:51.914Z,51.65
2022-09-21T12:16:27.040Z,52.29
2022-09-21T12:19:00.695Z,50.97
2022-09-21T12:21:32.089Z,50.85
2022-09-21T12:24:05.443Z,50.75
2022-09-21T12:26:40.003Z,52.09
2022-09-21T12:29:14.595Z,52.21
2022-09-21T12:31:47.623Z,50.26
2022-09-21T12:34:20.349Z,50.20
2022-09-21T12:36:56.284Z,50.65
2022-09-21T12:39:30.423Z,49.88
2022-09-21T12:42:04.144Z,51.49
2022-09-21T12:44:52.510Z,52.55
2022-09-21T12:47:24.883Z,51.36
2022-09-21T12:50:00.942Z,51.90
2022-09-21T12:52:29.127Z,52.24
2022-09-21T12:55:05.949Z,51.67
2022-09-21T12:58:10.800Z,50.54
2022-09-21T13:00:45.821Z,50.73
2022-09-21T13:03:20.345Z,49.95
2022-09-21T13:06:11.963Z,49.62
2022-09-21T13:08:44.530Z,52.10
2022-09-21T13:11:13.254Z,51.19
2022-09-21T13:13:52.901Z,50.80
2022-09-21T13:16:27.612Z,50.57
2022-09-21T13:18:57.744Z,49.59
2022-09-21T13:21:29.923Z,51.27
2022-09-21T13:24:00.757Z,50.82
2022-09-21T13:26:37.079Z,50.89
2022-09-21T13:29:26.061Z,51.41
2022-09-21T13:31:58.170Z,49.36
2022-09-21T13:34:36.555Z,51.96
2022-09-21T13:37:36.738Z,49.86
2022-09-21T13:40:42.025Z,51.57
2022-09-21T13:43:48.130Z,51.76
2022-09-21T13:46:49.651Z,51.48
2022-09-21T13:49:23.283Z,50.72
2022-09-21T13:51:54.131Z,50.81
2022-09-21T13:54:26.257Z,51.77
2022-09-21T13:57:09.547Z,50.53
2022-09-21T13:59:40.698Z,50.59
2022-09-21T14:02:25.228Z,49.13
2022-09-21T14:04:53.314Z,50.74
2022-09-21T14:07:21.706Z,50.54
2022-09-21T14:09:58.892Z,48.04
2022-09-21T14:12:33.580Z,48.93
2022-09-21T14:15:27.366Z,49.47
2022-09-21T14:18:35.792Z,49.52
2022-09-21T14:21:11.247Z,50.67
2022-09-21T14:23:39.993Z,49.05
2022-09-21T14:26:33.081Z,49.89
2022-09-21T14:29:09.223Z,48.67
2022-09-21T14:31:40.241Z,49.20
2022-09-21T14:34:23.436Z,48.75
2022-09-21T14:36:55.412Z,49.44
2022-09-21T14:39:26.901Z,50.68
2022-09-21T14:41:59.910Z,49.91
2022-09-21T14:44:31.775Z,49.50
2022-09-21T14:47:17.722Z,50.64
2022-09-21T14:50:12.975Z,48.86
2022-09-21T14:53:01.575Z,47.67
2022-09-21T14:55:43.083Z,46.38
2022-09-21T14:58:28.538Z,44.90
2022-09-21T15:00:59.627Z,45.34
2022-09-21T15:03:58.342Z,44.02
2022-09-21T15:06:49.804Z,46.17
2022-09-21T15:09:53.863Z,46.81
2022-09-21T15:12:30.395Z,47.51
2022-09-21T15:15:22.125Z,47.43
2022-09-21T15:17:59.259Z,47.39
2022-09-21T15:20:29.441Z,48.01
2022-09-21T15:22:58.873Z,48.56
2022-09-21T15:25:30.259Z,48.11
2022-09-21T15:28:00.342Z,47.06
2022-09-21T15:30:33.162Z,45.48
2022-09-21T15:33:02.943Z,43.65
2022-09-21T15:35:32.862Z,42.97
2022-09-21T15:38:01.859Z,42.94
2022-09-21T15:40:31.722Z,42.62
2022-09-21T15:43:03.975Z,42.95
2022-09-21T15:45:37.371Z,43.30
2022-09-21T15:48:11.199Z,44.18
2022-09-21T15:50:39.045Z,44.02
2022-09-21T15:53:14.681Z,43.71
2022-09-21T15:55:47.998Z,43.53
2022-09-21T15:58:31.722Z,42.98
2022-09-21T16:01:01.397Z,42.66
2022-09-21T16:03:30.696Z,41.92
2022-09-21T16:06:02.410Z,42.65
2022-09-21T16:08:33.845Z,42.82
2022-09-21T16:11:18.789Z,43.67
2022-09-21T16:14:05.971Z,44.55
2022-09-21T16:17:06.252Z,46.25
2022-09-21T16:19:44.832Z,47.46
2022-09-21T16:22:14.594Z,48.68
2022-09-21T16:24:46.217Z,48.85
2022-09-21T16:27:17.905Z,49.13
2022-09-21T16:29:48.459Z,50.40
2022-09-21T16:32:29.851Z,51.02
2022-09-21T16:35:25.253Z,51.71
2022-09-21T16:37:58.058Z,51.89
2022-09-21T16:40:26.886Z,51.96
2022-09-21T16:42:55.575Z,52.25
2022-09-21T16:45:27.215Z,52.64
2022-09-21T16:47:58.157Z,52.76
2022-09-21T16:50:25.939Z,53.47
2022-09-21T16:52:54.274Z,53.68
2022-09-21T16:55:28.238Z,54.27
2022-09-21T16:57:57.570Z,54.69
2022-09-21T17:00:25.276Z,55.10
2022-09-21T17:02:53.590Z,55.42
2022-09-21T17:05:22.607Z,56.07
2022-09-21T17:07:54.938Z,56.57
2022-09-21T17:10:27.247Z,56.98
2022-09-21T17:12:55.798Z,57.20
2022-09-21T17:15:23.831Z,57.51
2022-09-21T17:17:51.665Z,57.84
2022-09-21T17:20:27.738Z,58.59
2022-09-21T17:22:56.519Z,59.19
2022-09-21T17:25:24.186Z,59.85
2022-09-21T17:27:53.072Z,60.30
2022-09-21T17:30:21.099Z,60.64
2022-09-21T17:32:50.290Z,61.10
2022-09-21T17:35:26.307Z,61.73
2022-09-21T17:37:55.627Z,61.84
2022-09-21T17:40:24.755Z,62.22
2022-09-21T17:42:55.751Z,62.74
2022-09-21T17:45:32.498Z,63.28
2022-09-21T17:48:00.699Z,63.56
2022-09-21T17:50:29.310Z,63.94
2022-09-21T17:53:16.900Z,64.55
2022-09-21T17:55:50.007Z,64.92
2022-09-21T17:58:33.807Z,65.16
2022-09-21T18:01:07.404Z,65.43
2022-09-21T18:03:40.980Z,65.63
2022-09-21T18:06:09.855Z,66.16
2022-09-21T18:08:40.964Z,66.14
2022-09-21T18:11:23.250Z,66.21
2022-09-21T18:13:59.478Z,66.56
2022-09-21T18:16:31.524Z,66.65
2022-09-21T18:19:07.343Z,66.62
2022-09-21T18:21:40.712Z,66.96
2022-09-21T18:24:22.011Z,67.18
2022-09-21T18:26:52.252Z,67.53
2022-09-21T18:29:39.398Z,67.42
2022-09-21T18:32:32.197Z,67.33
2022-09-21T18:35:42.033Z,67.68
2022-09-21T18:38:18.230Z,67.88
2022-09-21T18:41:11.189Z,68.10
2022-09-21T18:43:51.705Z,68.32
2022-09-21T18:46:28.834Z,68.59
2022-09-21T18:49:03.314Z,69.03
2022-09-21T18:51:38.510Z,68.90
2022-09-21T18:54:07.160Z,68.99
2022-09-21T18:56:38.538Z,68.91
2022-09-21T18:59:07.521Z,69.22
2022-09-21T19:01:35.899Z,69.37
2022-09-21T19:04:04.899Z,69.27
2022-09-21T19:06:41.150Z,69.74
2022-09-21T19:09:25.961Z,69.80
2022-09-21T19:12:01.347Z,70.01
2022-09-21T19:14:38.311Z,70.20
2022-09-21T19:17:17.560Z,69.86
2022-09-21T19:19:54.169Z,70.32
2022-09-21T19:22:31.139Z,70.67
2022-09-21T19:25:06.143Z,70.61
2022-09-21T19:27:40.142Z,70.44
2022-09-21T19:30:11.813Z,70.84
2022-09-21T19:32:45.415Z,70.78
2022-09-21T19:35:20.380Z,70.79
2022-09-21T19:37:48.827Z,71.09
2022-09-21T19:40:18.666Z,71.59
2022-09-21T19:43:00.453Z,72.03
2022-09-21T19:45:33.518Z,72.60
2022-09-21T19:48:05.818Z,72.69
2022-09-21T19:50:41.018Z,73.20
2022-09-21T19:53:28.945Z,73.28
2022-09-21T19:56:16.448Z,73.56
2022-09-21T19:59:03.500Z,73.01
2022-09-21T20:01:35.148Z,73.11
2022-09-21T20:04:04.088Z,73.06
2022-09-21T20:06:36.832Z,73.10
2022-09-21T20:09:12.048Z,73.38
2022-09-21T20:11:45.083Z,73.42
2022-09-21T20:14:23.911Z,74.00
2022-09-21T20:16:54.383Z,73.90
2022-09-21T20:19:36.567Z,74.16
2022-09-21T20:22:12.146Z,74.08
2022-09-21T20:24:46.882Z,74.36
2022-09-21T20:27:26.298Z,74.77
2022-09-21T20:29:55.664Z,75.09
2022-09-21T20:32:23.714Z,74.79
2022-09-21T20:34:51.389Z,74.96
2022-09-21T20:37:19.296Z,75.26
2022-09-21T20:39:47.364Z,74.84
2022-09-21T20:42:20.521Z,74.94
2022-09-21T20:44:48.204Z,75.29
2022-09-21T20:47:18.921Z,74.72
2022-09-21T20:49:47.678Z,75.15
2022-09-21T20:52:16.733Z,75.44
2022-09-21T20:54:49.237Z,75.32
2022-09-21T20:57:17.778Z,75.71
2022-09-21T20:59:45.564Z,75.58
2022-09-21T21:02:13.747Z,75.72
2022-09-21T21:04:43.084Z,76.60
2022-09-21T21:07:10.994Z,76.85
2022-09-21T21:09:38.642Z,76.84
2022-09-21T21:12:06.736Z,76.79
2022-09-21T21:14:34.707Z,77.34
2022-09-21T21:17:02.440Z,77.72
2022-09-21T21:19:31.243Z,77.42
2022-09-21T21:22:00.278Z,78.06
2022-09-21T21:24:44.076Z,77.66
2022-09-21T21:27:16.225Z,77.98
2022-09-21T21:29:46.618Z,78.40
2022-09-21T21:32:15.063Z,78.34
2022-09-21T21:34:43.178Z,78.60
2022-09-21T21:37:12.991Z,78.77
2022-09-21T21:39:41.049Z,78.76
2022-09-21T21:42:08.886Z,79.19
2022-09-21T21:44:37.152Z,79.26
2022-09-21T21:47:27.365Z,79.22
2022-09-21T21:49:53.389Z,79.61
2022-09-21T21:52:22.459Z,79.09
2022-09-21T21:54:50.105Z,79.17
2022-09-21T21:57:18.095Z,79.25
2022-09-21T21:59:45.887Z,78.85
2022-09-21T22:02:13.606Z,78.88
2022-09-21T22:04:42.528Z,79.23
2022-09-21T22:07:10.192Z,79.51
2022-09-21T22:09:39.293Z,79.62
2022-09-21T22:12:07.720Z,79.97
2022-09-21T22:14:35.759Z,79.91
2022-09-21T22:17:03.821Z,80.10
2022-09-21T22:19:32.938Z,79.82
2022-09-21T22:22:00.633Z,80.03
2022-09-21T22:24:28.717Z,79.71
2022-09-21T22:26:57.973Z,79.76
2022-09-21T22:29:25.987Z,78.91
2022-09-21T22:31:55.558Z,79.20
2022-09-21T22:34:23.351Z,79.39
2022-09-21T22:36:51.580Z,79.46
2022-09-21T22:39:19.275Z,79.40
2022-09-21T22:41:46.954Z,78.96
2022-09-21T22:44:15.979Z,79.19
2022-09-21T22:46:43.946Z,79.13
2022-09-21T22:49:11.603Z,79.32
2022-09-21T22:51:39.662Z,78.67
2022-09-21T22:54:07.483Z,79.14
2022-09-21T22:56:36.294Z,79.00
2022-09-21T22:59:05.799Z,79.06
2022-09-21T23:01:37.479Z,78.87
2022-09-21T23:04:08.076Z,79.31
2022-09-21T23:06:38.486Z,79.49
2022-09-21T23:09:09.069Z,78.84
2022-09-21T23:11:39.060Z,78.89
2022-09-21T23:14:06.783Z,78.62
2022-09-21T23:16:36.293Z,78.50
2022-09-21T23:19:03.999Z,78.85
2022-09-21T23:21:32.567Z,79.53
2022-09-21T23:24:02.403Z,79.90
2022-09-21T23:26:33.389Z,79.87
2022-09-21T23:29:02.699Z,80.08
2022-09-21T23:31:32.137Z,80.32
2022-09-21T23:34:05.331Z,80.73
2022-09-21T23:36:33.448Z,80.74
2022-09-21T23:39:01.181Z,80.41
2022-09-21T23:41:31.415Z,80.75
2022-09-21T23:44:00.127Z,80.53
2022-09-21T23:46:30.919Z,80.63
2022-09-21T23:48:59.419Z,80.27
2022-09-21T23:51:30.799Z,80.36
2022-09-21T23:53:59.077Z,80.29
2022-09-21T23:56:27.142Z,79.99
2022-09-21T23:58:54.963Z,80.35
